createdAt,value
2019-03-30T00:01:15.188Z,5.50
2019-03-30T00:06:21.071Z,5.30
2019-03-30T00:11:26.903Z,5.30
2019-03-30T00:16:32.738Z,5.30
2019-03-30T00:21:38.580Z,5.20
2019-03-30T00:26:44.413Z,5.10
2019-03-30T00:31:50.307Z,5.00
2019-03-30T00:36:56.147Z,5.00
2019-03-30T00:42:01.979Z,4.90
2019-03-30T00:47:07.795Z,4.80
2019-03-30T00:52:13.661Z,4.60
2019-03-30T00:57:19.499Z,4.60
2019-03-30T01:02:25.431Z,4.70
2019-03-30T01:07:31.231Z,4.60
2019-03-30T01:12:37.078Z,4.70
2019-03-30T01:17:43.995Z,4.50
2019-03-30T01:22:49.826Z,4.40
2019-03-30T01:27:55.691Z,4.40
2019-03-30T01:33:02.611Z,4.50
2019-03-30T01:38:08.443Z,4.40
2019-03-30T01:43:14.283Z,4.30
2019-03-30T01:48:20.138Z,4.20
2019-03-30T01:53:26.016Z,4.30
2019-03-30T01:58:31.865Z,4.20
2019-03-30T02:03:37.727Z,4.10
2019-03-30T02:08:43.559Z,4.10
2019-03-30T02:13:49.427Z,4.10
2019-03-30T02:18:55.251Z,4.00
2019-03-30T02:24:01.087Z,3.90
2019-03-30T02:29:06.911Z,4.00
2019-03-30T02:34:12.747Z,4.00
2019-03-30T02:39:18.608Z,4.20
2019-03-30T02:44:24.461Z,4.20
2019-03-30T02:49:30.380Z,4.30
2019-03-30T02:54:36.219Z,4.30
2019-03-30T02:59:42.115Z,4.30
2019-03-30T03:04:47.999Z,4.30
2019-03-30T03:09:53.838Z,4.10
2019-03-30T03:14:59.698Z,3.90
2019-03-30T03:20:05.680Z,3.70
2019-03-30T03:25:11.532Z,3.70
2019-03-30T03:30:18.572Z,3.50
2019-03-30T03:35:24.419Z,3.60
2019-03-30T03:40:30.251Z,3.60
2019-03-30T03:45:36.107Z,3.50
2019-03-30T03:50:46.286Z,3.50
2019-03-30T03:55:52.256Z,3.30
2019-03-30T04:01:00.907Z,3.20
2019-03-30T04:06:07.877Z,3.10
2019-03-30T04:11:15.929Z,3.10
2019-03-30T04:16:21.792Z,2.90
2019-03-30T04:21:42.942Z,2.80
2019-03-30T04:26:35.120Z,2.80
2019-03-30T04:31:40.983Z,2.80
2019-03-30T04:36:46.831Z,2.80
2019-03-30T04:41:52.676Z,2.70
2019-03-30T04:46:58.521Z,2.70
2019-03-30T04:52:04.359Z,2.80
2019-03-30T04:57:10.236Z,2.80
2019-03-30T05:02:16.236Z,2.70
2019-03-30T05:07:22.894Z,2.80
2019-03-30T05:12:28.742Z,2.70
2019-03-30T05:17:46.852Z,2.70
2019-03-30T05:22:42.144Z,2.90
2019-03-30T05:27:47.991Z,3.00
2019-03-30T05:33:05.038Z,3.10
2019-03-30T05:38:01.663Z,3.10
2019-03-30T05:43:07.599Z,3.10
2019-03-30T05:48:13.458Z,3.10
2019-03-30T05:53:19.229Z,3.40
2019-03-30T05:58:25.095Z,3.50
2019-03-30T06:03:30.979Z,3.60
2019-03-30T06:08:36.851Z,3.80
2019-03-30T06:13:42.722Z,4.10
2019-03-30T06:18:48.577Z,4.60
2019-03-30T06:23:55.489Z,5.00
2019-03-30T06:29:01.334Z,5.20
2019-03-30T06:34:07.176Z,5.60
2019-03-30T06:39:13.016Z,5.50
2019-03-30T06:44:18.868Z,5.50
2019-03-30T06:49:24.724Z,6.50
2019-03-30T06:54:30.565Z,7.10
2019-03-30T06:59:36.504Z,8.00
2019-03-30T07:04:42.455Z,8.80
2019-03-30T07:09:51.343Z,8.90
2019-03-30T07:14:59.405Z,9.60
2019-03-30T07:20:05.470Z,9.60
2019-03-30T07:25:11.344Z,10.50
2019-03-30T07:30:17.191Z,10.80
2019-03-30T07:35:23.106Z,11.20
2019-03-30T07:40:29.352Z,11.70
2019-03-30T07:45:35.206Z,11.50
2019-03-30T07:50:42.143Z,12.20
2019-03-30T07:55:48.068Z,11.70
2019-03-30T08:00:54.046Z,12.30
2019-03-30T08:05:59.938Z,12.80
2019-03-30T08:11:06.055Z,13.00
2019-03-30T08:16:12.122Z,12.10
2019-03-30T08:21:18.091Z,12.90
2019-03-30T08:26:23.935Z,13.40
2019-03-30T08:31:29.787Z,13.20
2019-03-30T08:36:35.980Z,13.00
2019-03-30T08:41:45.013Z,12.20
2019-03-30T08:46:51.884Z,13.20
2019-03-30T08:51:57.730Z,13.50
2019-03-30T08:57:03.678Z,13.70
2019-03-30T09:02:10.040Z,13.40
2019-03-30T09:07:15.899Z,13.20
2019-03-30T09:12:22.219Z,14.40
2019-03-30T09:17:28.218Z,14.30
2019-03-30T09:22:34.304Z,13.60
2019-03-30T09:27:40.933Z,13.90
2019-03-30T09:32:47.033Z,13.00
2019-03-30T09:37:54.895Z,13.60
2019-03-30T09:43:01.525Z,14.30
2019-03-30T09:48:07.539Z,14.50
2019-03-30T09:53:14.735Z,14.40
2019-03-30T09:58:20.825Z,15.60
2019-03-30T10:03:27.123Z,15.80
2019-03-30T10:08:35.143Z,16.00
2019-03-30T10:13:43.101Z,17.10
2019-03-30T10:18:54.042Z,16.80
2019-03-30T10:24:00.252Z,17.20
2019-03-30T10:29:06.122Z,17.50
2019-03-30T10:34:16.738Z,18.40
2019-03-30T10:39:26.554Z,18.50
2019-03-30T10:44:33.173Z,16.20
2019-03-30T10:49:40.103Z,18.70
2019-03-30T10:54:52.971Z,19.40
2019-03-30T10:59:55.924Z,19.70
2019-03-30T11:05:01.860Z,20.30
2019-03-30T11:10:09.171Z,20.00
2019-03-30T11:15:16.170Z,19.60
2019-03-30T11:20:22.536Z,20.40
2019-03-30T11:25:28.711Z,21.00
2019-03-30T11:30:34.666Z,21.40
2019-03-30T11:35:41.109Z,21.60
2019-03-30T11:40:48.205Z,21.50
2019-03-30T11:45:54.095Z,21.40
2019-03-30T11:51:00.321Z,21.80
2019-03-30T11:56:07.010Z,21.80
2019-03-30T12:01:13.102Z,21.80
2019-03-30T12:06:19.731Z,21.30
2019-03-30T12:11:26.183Z,21.40
2019-03-30T12:16:32.118Z,21.40
2019-03-30T12:21:38.047Z,22.30
2019-03-30T12:26:43.908Z,21.80
2019-03-30T12:31:49.832Z,23.20
2019-03-30T12:36:56.556Z,23.50
2019-03-30T12:42:03.062Z,22.90
2019-03-30T12:47:10.500Z,22.70
2019-03-30T12:52:16.696Z,21.90
2019-03-30T12:57:23.325Z,22.50
2019-03-30T13:02:29.603Z,23.40
2019-03-30T13:07:35.685Z,23.00
2019-03-30T13:12:43.185Z,23.60
2019-03-30T13:17:49.951Z,23.70
2019-03-30T13:22:55.922Z,24.40
2019-03-30T13:28:02.432Z,24.50
2019-03-30T13:33:09.053Z,24.40
2019-03-30T13:38:15.113Z,24.30
2019-03-30T13:43:21.983Z,25.00
2019-03-30T13:48:29.477Z,23.90
2019-03-30T13:53:35.388Z,24.20
2019-03-30T13:58:41.632Z,25.60
2019-03-30T14:03:48.300Z,25.90
2019-03-30T14:08:54.855Z,24.70
2019-03-30T14:14:01.423Z,24.40
2019-03-30T14:19:07.776Z,24.70
2019-03-30T14:24:14.790Z,23.80
2019-03-30T14:29:21.668Z,24.10
2019-03-30T14:34:28.404Z,23.60
2019-03-30T14:39:34.763Z,24.30
2019-03-30T14:44:40.801Z,24.20
2019-03-30T14:49:46.900Z,24.30
2019-03-30T14:54:53.358Z,25.20
2019-03-30T15:00:00.445Z,24.90
2019-03-30T15:05:07.735Z,25.60
2019-03-30T15:10:17.310Z,25.80
2019-03-30T15:15:25.507Z,26.00
2019-03-30T15:20:31.492Z,24.90
2019-03-30T15:25:37.431Z,23.80
2019-03-30T15:30:43.676Z,24.10
2019-03-30T15:35:49.586Z,23.80
2019-03-30T15:40:56.914Z,22.70
2019-03-30T15:46:04.076Z,23.40
2019-03-30T15:51:10.015Z,23.20
2019-03-30T15:56:15.900Z,23.30
2019-03-30T16:01:22.107Z,23.40
2019-03-30T16:06:28.252Z,23.50
2019-03-30T16:11:34.388Z,23.00
2019-03-30T16:16:40.332Z,22.40
2019-03-30T16:21:49.474Z,22.80
2019-03-30T16:26:53.756Z,21.90
2019-03-30T16:32:02.369Z,21.90
2019-03-30T16:37:08.276Z,20.50
2019-03-30T16:42:14.212Z,20.30
2019-03-30T16:47:21.203Z,20.40
2019-03-30T16:52:31.952Z,20.40
2019-03-30T16:57:43.650Z,20.10
2019-03-30T17:02:49.627Z,19.70
2019-03-30T17:07:55.916Z,19.60
2019-03-30T17:13:10.239Z,19.50
2019-03-30T17:18:23.456Z,18.90
2019-03-30T17:23:31.581Z,18.20
2019-03-30T17:28:40.966Z,17.50
2019-03-30T17:33:48.424Z,17.10
2019-03-30T17:38:54.829Z,16.40
2019-03-30T17:44:01.196Z,16.40
2019-03-30T17:49:08.984Z,15.90
2019-03-30T17:54:15.333Z,15.60
2019-03-30T17:59:23.705Z,15.40
2019-03-30T18:04:32.208Z,15.20
2019-03-30T18:09:38.447Z,13.70
2019-03-30T18:14:44.609Z,15.00
2019-03-30T18:19:50.807Z,14.80
2019-03-30T18:24:57.011Z,14.70
2019-03-30T18:30:04.734Z,14.40
2019-03-30T18:35:12.375Z,14.20
2019-03-30T18:40:29.483Z,13.80
2019-03-30T18:45:37.009Z,13.80
2019-03-30T18:50:44.455Z,13.50
2019-03-30T18:55:52.313Z,13.10
2019-03-30T19:00:58.495Z,12.80
2019-03-30T19:06:05.094Z,12.60
2019-03-30T19:11:12.161Z,12.40
2019-03-30T19:16:18.541Z,12.50
2019-03-30T19:21:26.715Z,12.40
2019-03-30T19:26:33.568Z,12.10
2019-03-30T19:31:39.804Z,11.90
2019-03-30T19:36:46.177Z,11.50
2019-03-30T19:41:52.688Z,11.60
2019-03-30T19:46:58.874Z,11.40
2019-03-30T19:52:05.842Z,11.50
2019-03-30T19:57:12.509Z,11.30
2019-03-30T20:02:18.601Z,13.90
2019-03-30T20:07:25.013Z,10.90
2019-03-30T20:12:31.381Z,10.60
2019-03-30T20:17:37.757Z,10.50
2019-03-30T20:22:44.001Z,10.40
2019-03-30T20:27:50.223Z,10.30
2019-03-30T20:32:56.537Z,10.10
2019-03-30T20:38:02.849Z,10.10
2019-03-30T20:43:09.171Z,10.00
2019-03-30T20:48:15.603Z,9.70
2019-03-30T20:53:21.829Z,9.40
2019-03-30T20:58:29.495Z,9.50
2019-03-30T21:03:35.798Z,9.50
2019-03-30T21:08:42.115Z,9.50
2019-03-30T21:13:49.424Z,9.30
2019-03-30T21:18:56.112Z,9.10
2019-03-30T21:24:02.361Z,8.70
2019-03-30T21:29:09.712Z,8.60
2019-03-30T21:34:16.176Z,8.80
2019-03-30T21:39:22.621Z,8.90
2019-03-30T21:44:29.755Z,8.90
2019-03-30T21:49:36.440Z,8.80
2019-03-30T21:54:42.611Z,8.60
2019-03-30T21:59:48.797Z,8.60
2019-03-30T22:04:55.052Z,8.50
2019-03-30T22:10:01.200Z,8.40
2019-03-30T22:15:07.997Z,8.30
2019-03-30T22:20:14.397Z,8.10
2019-03-30T22:25:20.905Z,7.90
2019-03-30T22:30:27.641Z,8.00
2019-03-30T22:35:34.075Z,7.90
2019-03-30T22:40:41.573Z,7.80
2019-03-30T22:45:47.947Z,7.80
2019-03-30T22:50:55.492Z,7.80
2019-03-30T22:56:01.887Z,7.70
2019-03-30T23:01:16.395Z,7.70
2019-03-30T23:06:24.351Z,7.70
2019-03-30T23:11:30.589Z,7.50
2019-03-30T23:16:37.844Z,7.50
2019-03-30T23:21:44.034Z,7.50
2019-03-30T23:26:50.160Z,7.30
2019-03-30T23:31:56.581Z,7.10
2019-03-30T23:37:02.999Z,7.20
2019-03-30T23:42:09.342Z,7.10
2019-03-30T23:47:15.508Z,6.90
2019-03-30T23:52:21.816Z,6.80
2019-03-30T23:57:27.922Z,6.80
